createdAt,value
2018-06-05T00:01:07.232Z,43.56
2018-06-05T00:03:37.889Z,44.29
2018-06-05T00:06:06.523Z,44.05
2018-06-05T00:08:35.132Z,44.62
2018-06-05T00:11:03.953Z,44.91
2018-06-05T00:13:32.794Z,44.64
2018-06-05T00:16:01.610Z,45.17
2018-06-05T00:18:30.224Z,44.41
2018-06-05T00:21:00.609Z,45.37
2018-06-05T00:23:29.519Z,45.04
2018-06-05T00:25:58.100Z,45.06
2018-06-05T00:28:26.833Z,45.18
2018-06-05T00:30:56.240Z,45.01
2018-06-05T00:33:24.993Z,45.15
2018-06-05T00:35:53.693Z,45.05
2018-06-05T00:38:22.371Z,44.95
2018-06-05T00:40:51.205Z,44.50
2018-06-05T00:43:19.825Z,44.92
2018-06-05T00:45:51.139Z,45.06
2018-06-05T00:48:20.043Z,44.57
2018-06-05T00:50:49.654Z,44.61
2018-06-05T00:53:18.894Z,45.93
2018-06-05T00:55:47.651Z,45.57
2018-06-05T00:58:16.237Z,45.84
2018-06-05T01:00:45.070Z,45.22
2018-06-05T01:03:13.774Z,45.88
2018-06-05T01:05:42.753Z,46.14
2018-06-05T01:08:11.557Z,45.87
2018-06-05T01:10:40.361Z,45.66
2018-06-05T01:13:09.261Z,45.36
2018-06-05T01:15:38.200Z,45.75
2018-06-05T01:18:06.834Z,46.24
2018-06-05T01:20:35.766Z,46.17
2018-06-05T01:23:04.672Z,46.57
2018-06-05T01:25:33.353Z,46.66
2018-06-05T01:28:06.049Z,46.02
2018-06-05T01:33:10.393Z,46.83
2018-06-05T01:35:39.104Z,47.09
2018-06-05T01:38:11.599Z,46.17
2018-06-05T01:40:40.330Z,46.96
2018-06-05T01:43:09.974Z,46.66
2018-06-05T01:45:38.822Z,46.73
2018-06-05T01:48:10.905Z,46.84
2018-06-05T01:50:39.736Z,46.80
2018-06-05T01:53:08.692Z,47.62
2018-06-05T01:55:37.700Z,46.93
2018-06-05T01:58:10.791Z,47.01
2018-06-05T02:00:39.548Z,46.99
2018-06-05T02:03:08.323Z,46.79
2018-06-05T02:05:36.977Z,46.64
2018-06-05T02:08:05.947Z,46.59
2018-06-05T02:10:34.557Z,46.58
2018-06-05T02:13:03.174Z,46.71
2018-06-05T02:15:32.181Z,46.14
2018-06-05T02:18:00.887Z,46.66
2018-06-05T02:20:29.688Z,46.55
2018-06-05T02:22:58.464Z,46.02
2018-06-05T02:25:27.517Z,46.55
2018-06-05T02:27:56.168Z,46.33
2018-06-05T02:30:31.436Z,46.47
2018-06-05T02:33:00.396Z,45.95
2018-06-05T02:35:29.331Z,46.24
2018-06-05T02:37:58.071Z,46.31
2018-06-05T02:40:26.874Z,46.41
2018-06-05T02:42:55.647Z,46.63
2018-06-05T02:45:24.472Z,46.46
2018-06-05T02:47:53.060Z,45.70
2018-06-05T02:50:21.705Z,46.48
2018-06-05T02:52:50.364Z,45.74
2018-06-05T02:55:19.327Z,45.91
2018-06-05T02:57:47.986Z,45.73
2018-06-05T03:00:16.765Z,45.92
2018-06-05T03:02:45.527Z,45.87
2018-06-05T03:05:14.272Z,46.24
2018-06-05T03:07:43.057Z,45.99
2018-06-05T03:10:11.963Z,46.03
2018-06-05T03:12:40.859Z,45.65
2018-06-05T03:15:09.817Z,45.50
2018-06-05T03:17:38.765Z,45.32
2018-06-05T03:20:07.533Z,45.67
2018-06-05T03:22:36.302Z,45.11
2018-06-05T03:25:05.405Z,45.11
2018-06-05T03:27:34.052Z,44.95
2018-06-05T03:30:03.094Z,45.05
2018-06-05T03:32:31.855Z,44.87
2018-06-05T03:35:00.802Z,45.05
2018-06-05T03:37:29.537Z,44.74
2018-06-05T03:39:58.531Z,44.54
2018-06-05T03:42:27.414Z,43.99
2018-06-05T03:44:56.316Z,44.10
2018-06-05T03:47:25.106Z,43.64
2018-06-05T03:49:53.758Z,43.63
2018-06-05T03:52:22.356Z,43.35
2018-06-05T03:54:51.128Z,43.07
2018-06-05T03:57:19.936Z,42.70
2018-06-05T03:59:48.602Z,42.91
2018-06-05T04:02:17.255Z,42.32
2018-06-05T04:04:46.164Z,42.23
2018-06-05T04:07:15.066Z,41.48
2018-06-05T04:09:43.867Z,41.07
2018-06-05T04:12:12.578Z,40.71
2018-06-05T04:14:41.302Z,40.55
2018-06-05T04:17:10.103Z,40.51
2018-06-05T04:19:38.794Z,39.82
2018-06-05T04:22:07.552Z,39.96
2018-06-05T04:24:36.647Z,39.94
2018-06-05T04:27:05.305Z,39.60
2018-06-05T04:29:34.332Z,38.48
2018-06-05T04:32:05.775Z,39.32
2018-06-05T04:34:34.603Z,39.00
2018-06-05T04:37:03.200Z,38.14
2018-06-05T04:39:32.010Z,38.15
2018-06-05T04:42:00.657Z,38.59
2018-06-05T04:44:29.358Z,38.05
2018-06-05T04:46:58.047Z,37.89
2018-06-05T04:49:26.731Z,37.04
2018-06-05T04:51:55.327Z,37.20
2018-06-05T04:54:23.923Z,37.33
2018-06-05T04:56:52.651Z,36.51
2018-06-05T04:59:21.458Z,36.84
2018-06-05T05:01:50.337Z,35.70
2018-06-05T05:04:19.068Z,35.45
2018-06-05T05:06:47.642Z,36.45
2018-06-05T05:09:16.998Z,35.40
2018-06-05T05:11:45.927Z,35.87
2018-06-05T05:14:14.723Z,35.82
2018-06-05T05:16:43.524Z,35.60
2018-06-05T05:19:12.315Z,35.71
2018-06-05T05:21:41.005Z,34.97
2018-06-05T05:24:09.788Z,34.34
2018-06-05T05:26:38.613Z,34.37
2018-06-05T05:29:07.389Z,34.60
2018-06-05T05:31:36.161Z,34.86
2018-06-05T05:34:05.299Z,34.38
2018-06-05T05:36:34.213Z,33.42
2018-06-05T05:39:03.090Z,34.23
2018-06-05T05:41:31.785Z,33.79
2018-06-05T05:44:00.540Z,33.71
2018-06-05T05:46:29.479Z,33.23
2018-06-05T05:48:58.421Z,33.24
2018-06-05T05:51:27.133Z,33.00
2018-06-05T05:53:55.846Z,33.04
2018-06-05T05:56:24.944Z,33.10
2018-06-05T05:58:53.997Z,32.74
2018-06-05T06:01:22.977Z,33.03
2018-06-05T06:03:51.613Z,32.94
2018-06-05T06:06:20.472Z,32.93
2018-06-05T06:08:49.087Z,32.72
2018-06-05T06:11:18.199Z,32.65
2018-06-05T06:13:47.023Z,32.60
2018-06-05T06:16:15.778Z,32.19
2018-06-05T06:18:44.577Z,31.81
2018-06-05T06:21:13.278Z,31.25
2018-06-05T06:23:41.888Z,31.86
2018-06-05T06:26:10.741Z,32.09
2018-06-05T06:28:39.450Z,31.68
2018-06-05T06:31:08.289Z,31.89
2018-06-05T06:33:37.201Z,31.60
2018-06-05T06:36:06.029Z,31.50
2018-06-05T06:38:34.956Z,31.81
2018-06-05T06:41:03.952Z,31.58
2018-06-05T06:43:32.577Z,31.23
2018-06-05T06:46:01.269Z,30.91
2018-06-05T06:48:29.924Z,29.91
2018-06-05T06:50:58.965Z,30.06
2018-06-05T06:53:27.889Z,29.87
2018-06-05T06:55:56.585Z,28.93
2018-06-05T06:58:25.298Z,29.08
2018-06-05T07:00:54.300Z,28.78
2018-06-05T07:03:23.174Z,28.98
2018-06-05T07:05:51.752Z,28.59
2018-06-05T07:08:20.777Z,28.17
2018-06-05T07:10:49.560Z,28.24
2018-06-05T07:13:18.291Z,28.37
2018-06-05T07:15:47.002Z,28.51
2018-06-05T07:18:15.877Z,27.26
2018-06-05T07:20:44.617Z,28.09
2018-06-05T07:23:13.413Z,27.55
2018-06-05T07:25:42.060Z,26.88
2018-06-05T07:28:10.888Z,27.29
2018-06-05T07:30:39.590Z,26.27
2018-06-05T07:33:08.338Z,26.54
2018-06-05T07:35:37.185Z,26.79
2018-06-05T07:38:06.143Z,27.32
2018-06-05T07:40:34.786Z,27.92
2018-06-05T07:43:03.594Z,26.47
2018-06-05T07:45:32.297Z,27.33
2018-06-05T07:48:00.996Z,26.09
2018-06-05T07:50:29.831Z,25.50
2018-06-05T07:52:58.566Z,25.83
2018-06-05T07:55:27.856Z,25.91
2018-06-05T07:57:56.779Z,25.64
2018-06-05T08:00:25.475Z,26.30
2018-06-05T08:05:53.674Z,24.91
2018-06-05T08:08:22.674Z,25.52
2018-06-05T08:10:51.394Z,25.54
2018-06-05T08:13:20.234Z,25.95
2018-06-05T08:15:49.244Z,26.38
2018-06-05T08:18:18.415Z,26.94
2018-06-05T08:20:47.016Z,26.08
2018-06-05T08:23:16.001Z,26.64
2018-06-05T08:25:44.590Z,26.43
2018-06-05T08:28:13.280Z,26.07
2018-06-05T08:30:42.292Z,25.78
2018-06-05T08:33:11.158Z,25.81
2018-06-05T08:35:40.145Z,26.27
2018-06-05T08:38:08.924Z,25.34
2018-06-05T08:40:37.522Z,26.47
2018-06-05T08:43:06.269Z,26.69
2018-06-05T08:45:34.955Z,25.87
2018-06-05T08:48:03.640Z,26.29
2018-06-05T08:50:32.733Z,25.46
2018-06-05T08:53:01.410Z,25.80
2018-06-05T08:55:30.068Z,24.94
2018-06-05T08:57:58.761Z,24.24
2018-06-05T09:00:27.542Z,25.09
2018-06-05T09:02:56.516Z,24.65
2018-06-05T09:05:25.517Z,24.89
2018-06-05T09:07:54.070Z,24.56
2018-06-05T09:10:22.912Z,24.74
2018-06-05T09:12:51.718Z,25.28
2018-06-05T09:15:20.385Z,24.71
2018-06-05T09:17:49.192Z,24.97
2018-06-05T09:20:17.932Z,24.31
2018-06-05T09:22:46.613Z,24.93
2018-06-05T09:25:15.622Z,24.95
2018-06-05T09:27:44.779Z,24.59
2018-06-05T09:30:13.448Z,24.81
2018-06-05T09:32:42.231Z,24.69
2018-06-05T09:35:11.092Z,24.94
2018-06-05T09:37:40.012Z,24.77
2018-06-05T09:40:08.800Z,25.33
2018-06-05T09:42:37.500Z,24.50
2018-06-05T09:45:06.481Z,24.40
2018-06-05T09:47:35.484Z,23.86
2018-06-05T09:50:04.287Z,23.30
2018-06-05T09:52:32.968Z,23.16
2018-06-05T09:55:01.608Z,23.78
2018-06-05T09:57:30.375Z,23.29
2018-06-05T09:59:59.194Z,24.40
2018-06-05T10:02:27.996Z,24.50
2018-06-05T10:04:56.905Z,24.78
2018-06-05T10:07:25.693Z,25.19
2018-06-05T10:09:54.591Z,26.08
2018-06-05T10:12:23.350Z,26.08
2018-06-05T10:14:52.133Z,25.86
2018-06-05T10:17:20.943Z,26.30
2018-06-05T10:19:49.753Z,26.11
2018-06-05T10:22:18.428Z,26.07
2018-06-05T10:24:47.013Z,25.70
2018-06-05T10:27:16.129Z,25.82
2018-06-05T10:29:44.839Z,24.09
2018-06-05T10:32:13.560Z,23.79
2018-06-05T10:34:42.435Z,23.92
2018-06-05T10:37:11.170Z,24.19
2018-06-05T10:39:40.251Z,24.95
2018-06-05T10:42:09.106Z,25.55
2018-06-05T10:44:37.899Z,25.82
2018-06-05T10:47:06.585Z,25.75
2018-06-05T10:49:35.227Z,25.98
2018-06-05T10:52:03.904Z,26.58
2018-06-05T10:54:32.705Z,26.38
2018-06-05T10:57:01.504Z,26.52
2018-06-05T10:59:30.442Z,26.44
2018-06-05T11:01:59.419Z,26.31
2018-06-05T11:04:28.200Z,25.81
2018-06-05T11:06:57.094Z,25.76
2018-06-05T11:09:26.092Z,24.81
2018-06-05T11:11:54.852Z,24.45
2018-06-05T11:14:23.484Z,23.01
2018-06-05T11:16:52.312Z,22.63
2018-06-05T11:19:21.086Z,23.21
2018-06-05T11:21:50.176Z,24.35
2018-06-05T11:24:19.031Z,25.19
2018-06-05T11:26:47.835Z,25.06
2018-06-05T11:29:16.657Z,25.63
2018-06-05T11:31:45.471Z,25.44
2018-06-05T11:34:14.304Z,25.59
2018-06-05T11:36:44.146Z,26.00
2018-06-05T11:39:12.971Z,25.34
2018-06-05T11:41:41.732Z,25.40
2018-06-05T11:44:10.409Z,25.28
2018-06-05T11:46:39.197Z,26.07
2018-06-05T11:49:08.102Z,28.44
2018-06-05T11:51:37.177Z,30.40
2018-06-05T11:54:06.258Z,32.67
2018-06-05T11:56:35.689Z,35.79
2018-06-05T11:59:04.596Z,33.28
2018-06-05T12:01:33.320Z,34.95
2018-06-05T12:04:02.318Z,33.00
2018-06-05T12:06:31.127Z,32.24
2018-06-05T12:08:59.880Z,30.90
2018-06-05T12:11:28.773Z,30.19
2018-06-05T12:13:57.650Z,28.97
2018-06-05T12:16:26.252Z,28.97
2018-06-05T12:18:54.976Z,28.02
2018-06-05T12:21:23.527Z,25.88
2018-06-05T12:23:52.562Z,25.12
2018-06-05T12:26:21.223Z,23.45
2018-06-05T12:28:50.080Z,20.45
2018-06-05T12:31:19.102Z,19.63
2018-06-05T12:33:48.378Z,17.74
2018-06-05T12:36:17.265Z,17.24
2018-06-05T12:38:45.954Z,15.94
2018-06-05T12:41:14.866Z,18.18
2018-06-05T12:43:43.634Z,19.74
2018-06-05T12:46:12.239Z,16.98
2018-06-05T12:48:40.870Z,18.14
2018-06-05T12:51:09.858Z,14.51
2018-06-05T12:53:38.631Z,15.45
2018-06-05T12:56:07.349Z,17.37
2018-06-05T12:58:36.301Z,18.53
2018-06-05T13:01:05.382Z,20.29
2018-06-05T13:03:34.084Z,21.08
2018-06-05T13:06:03.054Z,22.36
2018-06-05T13:08:31.942Z,23.56
2018-06-05T13:11:00.962Z,23.77
2018-06-05T13:13:29.974Z,23.88
2018-06-05T13:15:58.621Z,24.78
2018-06-05T13:18:27.636Z,25.18
2018-06-05T13:20:56.433Z,25.31
2018-06-05T13:23:25.382Z,25.35
2018-06-05T13:25:54.312Z,25.48
2018-06-05T13:28:23.056Z,25.65
2018-06-05T13:30:51.784Z,25.36
2018-06-05T13:33:20.558Z,25.27
2018-06-05T13:35:49.268Z,25.48
2018-06-05T13:38:17.985Z,26.35
2018-06-05T13:40:47.145Z,25.63
2018-06-05T13:43:15.949Z,25.63
2018-06-05T13:45:44.679Z,25.19
2018-06-05T13:48:13.639Z,24.94
2018-06-05T13:50:42.331Z,26.00
2018-06-05T13:53:11.121Z,24.96
2018-06-05T13:55:39.946Z,25.05
2018-06-05T13:58:08.914Z,24.89
2018-06-05T14:00:37.861Z,24.19
2018-06-05T14:03:06.882Z,23.64
2018-06-05T14:05:35.511Z,22.67
2018-06-05T14:08:04.214Z,22.21
2018-06-05T14:10:32.941Z,22.41
2018-06-05T14:13:01.626Z,21.78
2018-06-05T14:15:30.511Z,21.96
2018-06-05T14:17:59.151Z,22.42
2018-06-05T14:20:28.062Z,22.66
2018-06-05T14:22:56.805Z,22.92
2018-06-05T14:25:25.519Z,24.12
2018-06-05T14:27:54.422Z,25.32
2018-06-05T14:30:23.263Z,25.15
2018-06-05T14:32:52.174Z,26.88
2018-06-05T14:35:21.175Z,27.25
2018-06-05T14:37:49.947Z,28.97
2018-06-05T14:40:18.696Z,29.24
2018-06-05T14:42:47.465Z,30.24
2018-06-05T14:45:16.419Z,30.75
2018-06-05T14:47:44.987Z,30.18
2018-06-05T14:50:13.832Z,30.39
2018-06-05T14:52:42.448Z,30.98
2018-06-05T14:55:11.172Z,31.30
2018-06-05T14:57:39.995Z,31.17
2018-06-05T15:00:08.665Z,31.42
2018-06-05T15:02:37.517Z,31.47
2018-06-05T15:05:06.158Z,31.07
2018-06-05T15:07:34.796Z,31.16
2018-06-05T15:10:03.437Z,30.62
2018-06-05T15:12:32.040Z,31.51
2018-06-05T15:15:00.785Z,30.25
2018-06-05T15:17:29.677Z,29.75
2018-06-05T15:19:58.335Z,29.87
2018-06-05T15:22:27.036Z,29.13
2018-06-05T15:24:55.652Z,27.75
2018-06-05T15:27:24.730Z,28.25
2018-06-05T15:29:53.892Z,28.46
2018-06-05T15:32:22.638Z,28.63
2018-06-05T15:34:51.483Z,28.65
2018-06-05T15:37:20.476Z,28.08
2018-06-05T15:39:49.178Z,28.27
2018-06-05T15:42:18.010Z,28.65
2018-06-05T15:44:47.126Z,28.56
2018-06-05T15:47:15.904Z,28.14
2018-06-05T15:49:45.025Z,27.88
2018-06-05T15:52:13.896Z,28.47
2018-06-05T15:54:42.688Z,28.08
2018-06-05T15:57:11.537Z,27.23
2018-06-05T15:59:40.414Z,26.59
2018-06-05T16:02:09.144Z,26.79
2018-06-05T16:04:37.877Z,26.36
2018-06-05T16:07:06.780Z,26.45
2018-06-05T16:09:35.680Z,27.06
2018-06-05T16:12:04.542Z,27.04
2018-06-05T16:14:33.203Z,27.48
2018-06-05T16:17:01.967Z,27.84
2018-06-05T16:19:30.840Z,28.12
2018-06-05T16:21:59.549Z,28.53
2018-06-05T16:24:28.550Z,29.04
2018-06-05T16:26:57.423Z,30.12
2018-06-05T16:29:26.334Z,30.58
2018-06-05T16:31:55.295Z,30.54
2018-06-05T16:34:23.895Z,30.40
2018-06-05T16:36:52.680Z,30.18
2018-06-05T16:39:21.455Z,29.96
2018-06-05T16:41:50.249Z,29.89
2018-06-05T16:44:18.934Z,30.18
2018-06-05T16:46:47.882Z,30.33
2018-06-05T16:49:16.672Z,29.78
2018-06-05T16:51:45.521Z,30.37
2018-06-05T16:54:14.309Z,30.85
2018-06-05T16:56:43.095Z,31.37
2018-06-05T16:59:11.777Z,31.31
2018-06-05T17:01:40.637Z,31.47
2018-06-05T17:04:09.431Z,31.73
2018-06-05T17:06:38.127Z,31.43
2018-06-05T17:09:08.049Z,31.00
2018-06-05T17:11:36.783Z,31.33
2018-06-05T17:14:05.522Z,31.16
2018-06-05T17:16:34.952Z,31.65
2018-06-05T17:19:03.899Z,31.95
2018-06-05T17:21:32.574Z,32.09
2018-06-05T17:24:01.397Z,31.87
2018-06-05T17:26:30.278Z,32.40
2018-06-05T17:28:59.004Z,32.19
2018-06-05T17:31:27.817Z,32.08
2018-06-05T17:33:57.115Z,32.29
2018-06-05T17:36:26.143Z,32.10
2018-06-05T17:38:55.389Z,32.45
2018-06-05T17:41:27.834Z,32.28
2018-06-05T17:43:56.724Z,32.10
2018-06-05T17:46:25.803Z,32.57
2018-06-05T17:48:55.464Z,32.49
2018-06-05T17:51:24.566Z,32.89
2018-06-05T17:53:53.504Z,32.61
2018-06-05T17:56:22.261Z,32.43
2018-06-05T17:58:50.984Z,32.91
2018-06-05T18:01:19.622Z,32.33
2018-06-05T18:03:48.356Z,32.08
2018-06-05T18:06:18.276Z,32.49
2018-06-05T18:08:47.461Z,32.78
2018-06-05T18:11:17.491Z,32.76
2018-06-05T18:13:47.400Z,32.49
2018-06-05T18:16:17.065Z,32.75
2018-06-05T18:18:46.532Z,32.96
2018-06-05T18:21:15.728Z,32.59
2018-06-05T18:23:44.606Z,32.47
2018-06-05T18:26:13.216Z,32.30
2018-06-05T18:28:41.943Z,31.58
2018-06-05T18:31:10.704Z,31.51
2018-06-05T18:33:39.421Z,31.09
2018-06-05T18:36:08.163Z,31.04
2018-06-05T18:38:36.782Z,30.65
2018-06-05T18:41:05.590Z,29.46
2018-06-05T18:43:34.225Z,29.02
2018-06-05T18:46:03.065Z,28.94
2018-06-05T18:48:31.951Z,28.64
2018-06-05T18:51:05.392Z,29.19
2018-06-05T18:53:34.576Z,28.88
2018-06-05T18:56:03.267Z,29.45
2018-06-05T18:58:32.938Z,29.44
2018-06-05T19:01:01.695Z,29.45
2018-06-05T19:03:30.614Z,29.67
2018-06-05T19:05:59.198Z,29.45
2018-06-05T19:08:28.153Z,29.62
2018-06-05T19:10:57.111Z,29.88
2018-06-05T19:13:25.794Z,29.71
2018-06-05T19:15:54.681Z,29.96
2018-06-05T19:18:23.487Z,29.84
2018-06-05T19:20:52.134Z,30.18
2018-06-05T19:23:20.864Z,30.04
2018-06-05T19:25:49.659Z,30.42
2018-06-05T19:28:18.590Z,30.62
2018-06-05T19:30:48.234Z,30.89
2018-06-05T19:33:16.893Z,31.16
2018-06-05T19:35:46.233Z,31.14
2018-06-05T19:38:14.892Z,31.43
2018-06-05T19:40:43.764Z,31.64
2018-06-05T19:43:12.839Z,31.52
2018-06-05T19:45:41.616Z,31.65
2018-06-05T19:48:12.888Z,31.76
2018-06-05T19:50:41.560Z,31.86
2018-06-05T19:53:11.449Z,32.16
2018-06-05T19:55:40.091Z,31.78
2018-06-05T19:58:09.000Z,32.47
2018-06-05T20:00:37.636Z,32.46
2018-06-05T20:03:07.120Z,32.89
2018-06-05T20:05:35.847Z,32.62
2018-06-05T20:08:04.672Z,32.89
2018-06-05T20:10:33.515Z,32.89
2018-06-05T20:13:02.205Z,33.16
2018-06-05T20:15:30.938Z,32.91
2018-06-05T20:17:59.656Z,33.15
2018-06-05T20:20:28.340Z,33.33
2018-06-05T20:22:57.254Z,33.79
2018-06-05T20:25:26.507Z,34.08
2018-06-05T20:27:55.342Z,34.10
2018-06-05T20:30:24.534Z,34.29
2018-06-05T20:32:53.187Z,34.09
2018-06-05T20:35:22.811Z,34.56
2018-06-05T20:37:51.561Z,34.96
2018-06-05T20:40:20.639Z,35.49
2018-06-05T20:42:49.413Z,35.58
2018-06-05T20:45:18.164Z,36.02
2018-06-05T20:47:47.399Z,35.44
2018-06-05T20:50:16.525Z,35.49
2018-06-05T20:52:45.124Z,36.11
2018-06-05T20:55:14.005Z,35.85
2018-06-05T20:57:42.619Z,36.18
2018-06-05T21:00:11.328Z,36.64
2018-06-05T21:02:40.207Z,36.71
2018-06-05T21:05:08.875Z,36.43
2018-06-05T21:07:37.911Z,36.72
2018-06-05T21:10:07.044Z,36.77
2018-06-05T21:12:35.897Z,36.96
2018-06-05T21:15:04.538Z,36.81
2018-06-05T21:17:33.185Z,36.84
2018-06-05T21:20:01.804Z,36.64
2018-06-05T21:22:31.082Z,37.25
2018-06-05T21:24:59.787Z,36.75
2018-06-05T21:27:28.447Z,37.08
2018-06-05T21:29:57.535Z,37.71
2018-06-05T21:32:26.533Z,37.32
2018-06-05T21:34:55.137Z,37.79
2018-06-05T21:37:23.981Z,37.83
2018-06-05T21:39:52.728Z,39.26
2018-06-05T21:42:21.843Z,38.90
2018-06-05T21:44:50.583Z,38.96
2018-06-05T21:47:19.572Z,38.19
2018-06-05T21:49:49.289Z,38.41
2018-06-05T21:52:18.151Z,38.15
2018-06-05T21:54:46.945Z,38.39
2018-06-05T21:57:15.842Z,38.94
2018-06-05T21:59:44.664Z,38.64
2018-06-05T22:02:13.306Z,38.63
2018-06-05T22:04:42.097Z,38.71
2018-06-05T22:07:10.798Z,39.47
2018-06-05T22:09:39.505Z,39.07
2018-06-05T22:12:10.861Z,39.50
2018-06-05T22:14:39.751Z,38.78
2018-06-05T22:17:08.396Z,39.22
2018-06-05T22:19:37.580Z,39.61
2018-06-05T22:22:06.498Z,39.27
2018-06-05T22:24:35.501Z,40.18
2018-06-05T22:27:04.508Z,40.36
2018-06-05T22:29:33.378Z,41.40
2018-06-05T22:32:02.304Z,42.01
2018-06-05T22:34:31.266Z,41.67
2018-06-05T22:37:00.447Z,41.95
2018-06-05T22:39:29.954Z,41.64
2018-06-05T22:41:59.198Z,42.32
2018-06-05T22:44:28.432Z,41.94
2018-06-05T22:46:57.425Z,42.04
2018-06-05T22:49:26.292Z,42.76
2018-06-05T22:51:55.712Z,42.55
2018-06-05T22:54:24.814Z,42.81
2018-06-05T22:56:54.007Z,42.53
2018-06-05T22:59:22.957Z,42.31
2018-06-05T23:01:51.615Z,42.62
2018-06-05T23:04:20.320Z,42.61
2018-06-05T23:06:49.112Z,43.12
2018-06-05T23:09:17.935Z,42.86
2018-06-05T23:11:46.912Z,42.73
2018-06-05T23:14:15.711Z,43.77
2018-06-05T23:16:44.404Z,43.20
2018-06-05T23:19:13.176Z,43.46
2018-06-05T23:21:41.984Z,44.13
2018-06-05T23:24:10.642Z,43.99
2018-06-05T23:26:39.331Z,44.49
2018-06-05T23:29:08.132Z,44.76
2018-06-05T23:31:36.995Z,44.60
2018-06-05T23:34:05.742Z,45.20
2018-06-05T23:36:34.678Z,45.80
2018-06-05T23:39:03.522Z,45.15
2018-06-05T23:41:32.231Z,45.22
2018-06-05T23:44:00.891Z,45.53
2018-06-05T23:46:29.477Z,45.53
2018-06-05T23:48:58.266Z,45.49
2018-06-05T23:51:27.151Z,45.72
2018-06-05T23:53:55.745Z,45.84
2018-06-05T23:56:24.604Z,46.34
2018-06-05T23:58:53.344Z,46.40
